Time;durP1;ratioP1;P1;durP2;ratioP2;P2;SDS_P1;SDS_P2;PMS_P1;PMS_P2;Temp;Humidity;BMP_temperature;BMP_pressure;BME280_temperature;BME280_humidity;BME280_pressure;Samples;Min_cycle;Max_cycle;Signal;HPM_P1;HPM_P2
2022/09/15 00:00:45;;;;;;;11.50;7.77;;;;;;;40.40;35.73;101150.91;5072598;28;20483;-80
2022/09/15 00:03:12;;;;;;;21.70;8.37;;;;;;;40.53;35.95;101148.06;5072566;28;20516;-78
2022/09/15 00:05:38;;;;;;;23.53;9.20;;;;;;;40.83;35.12;101147.47;5089468;28;20414;-80
2022/09/15 00:08:04;;;;;;;24.37;8.43;;;;;;;40.46;35.35;101144.19;5072571;28;20472;-79
2022/09/15 00:10:30;;;;;;;21.83;8.00;;;;;;;40.58;35.48;101140.84;5055654;28;20421;-80
2022/09/15 00:12:56;;;;;;;25.77;9.23;;;;;;;40.14;35.86;101129.88;5089289;28;20452;-80
2022/09/15 00:15:23;;;;;;;24.97;8.93;;;;;;;40.08;36.02;101138.47;5073301;28;20823;-79
2022/09/15 00:17:51;;;;;;;15.73;7.60;;;;;;;40.19;36.03;101135.16;5071530;28;20457;-80
2022/09/15 00:20:19;;;;;;;24.33;8.80;;;;;;;40.11;36.28;101127.78;5089031;28;20446;-79
2022/09/15 00:22:46;;;;;;;24.17;8.67;;;;;;;40.45;35.17;101123.53;5071991;28;20425;-80
2022/09/15 00:25:12;;;;;;;16.33;7.33;;;;;;;40.34;35.45;101120.34;5072062;28;20413;-79
2022/09/15 00:27:39;;;;;;;15.57;7.47;;;;;;;40.08;35.63;101114.81;5072381;28;20481;-79
2022/09/15 00:30:06;;;;;;;11.13;6.30;;;;;;;40.48;35.36;101114.78;5072551;28;20835;-79
2022/09/15 00:32:32;;;;;;;16.73;10.43;;;;;;;40.40;35.38;101113.63;5073439;28;20472;-81
2022/09/15 00:34:58;;;;;;;24.67;8.93;;;;;;;40.49;35.23;101111.75;5088693;28;20846;-80
2022/09/15 00:37:25;;;;;;;34.27;9.97;;;;;;;40.42;35.19;101119.56;5088827;28;20429;-80
2022/09/15 00:39:52;;;;;;;12.50;7.53;;;;;;;40.48;35.23;101114.78;5088578;28;20422;-80
2022/09/15 00:42:21;;;;;;;15.00;10.07;;;;;;;40.55;34.76;101115.91;5088632;28;20432;-80
2022/09/15 00:44:52;;;;;;;20.90;8.97;;;;;;;40.62;34.81;101103.75;5088627;28;20460;-81
2022/09/15 00:47:22;;;;;;;18.03;9.90;;;;;;;40.97;34.54;101101.88;5071674;28;20422;-80
2022/09/15 00:49:53;;;;;;;20.97;10.00;;;;;;;41.23;34.40;101101.81;5088499;28;20422;-80
2022/09/15 00:52:26;;;;;;;15.50;8.97;;;;;;;40.85;35.12;101107.94;5088527;28;20424;-81
2022/09/15 00:55:03;;;;;;;17.60;9.43;;;;;;;40.67;35.17;101095.44;5088572;28;20806;-81
2022/09/15 00:57:38;;;;;;;30.27;10.03;;;;;;;40.64;34.92;101088.75;5072863;28;20445;-80
2022/09/15 01:00:08;;;;;;;18.57;9.97;;;;;;;40.87;35.08;101067.59;5073066;28;20435;-81
2022/09/15 01:02:36;;;;;;;22.37;10.63;;;;;;;40.51;35.83;101074.16;5088449;28;20932;-80
2022/09/15 01:05:07;;;;;;;13.13;8.03;;;;;;;40.31;35.97;101065.81;5071593;28;20410;-79
2022/09/15 01:07:44;;;;;;;27.83;10.17;;;;;;;40.56;35.26;101065.06;5088011;28;20457;-80
2022/09/15 01:10:34;;;;;;;23.27;8.90;;;;;;;40.91;35.44;101067.78;5088297;28;21090;-79
2022/09/15 01:13:12;;;;;;;15.63;8.77;;;;;;;40.54;35.82;101070.00;5088326;28;20453;-79
2022/09/15 01:16:13;;;;;;;16.40;8.20;;;;;;;40.57;35.60;101069.38;5072825;28;20472;-79
2022/09/15 01:18:53;;;;;;;19.47;10.40;;;;;;;40.70;35.18;101073.88;5058348;28;20505;-79
2022/09/15 01:21:39;;;;;;;22.13;10.87;;;;;;;40.85;35.27;101069.06;5088379;28;20418;-79
2022/09/15 01:24:20;;;;;;;15.60;7.77;;;;;;;40.48;35.42;101074.81;5088135;28;20453;-81
2022/09/15 01:27:24;;;;;;;15.40;8.37;;;;;;;40.64;35.08;101069.72;5088223;28;20777;-80
2022/09/15 01:30:05;;;;;;;29.80;8.13;;;;;;;40.66;35.18;101066.66;5070097;28;20437;-78
2022/09/15 01:33:04;;;;;;;31.20;9.37;;;;;;;40.69;35.18;101066.00;5092283;28;20914;-80
2022/09/15 01:35:54;;;;;;;22.97;9.60;;;;;;;40.42;35.75;101064.38;5092292;28;20448;-81
2022/09/15 01:38:36;;;;;;;26.37;7.47;;;;;;;40.61;35.05;101053.22;5092130;28;20465;-80
2022/09/15 01:41:15;;;;;;;23.90;8.83;;;;;;;40.69;34.83;101055.91;5091970;28;20429;-81
2022/09/15 01:43:53;;;;;;;17.70;9.07;;;;;;;40.56;35.16;101048.72;5091967;28;20421;-82
2022/09/15 01:46:23;;;;;;;16.53;9.53;;;;;;;40.83;34.67;101049.53;5091800;28;20634;-80
2022/09/15 01:48:52;;;;;;;24.03;7.53;;;;;;;40.74;34.79;101041.38;5074975;28;20414;-80
2022/09/15 01:51:20;;;;;;;20.30;8.77;;;;;;;40.44;34.82;101054.78;5074865;28;20425;-81
2022/09/15 01:53:47;;;;;;;25.87;8.90;;;;;;;40.87;34.13;101045.03;5076356;28;20393;-80
2022/09/15 01:56:13;;;;;;;17.50;8.73;;;;;;;40.72;34.71;101049.84;5074661;28;20418;-81
2022/09/15 01:58:40;;;;;;;14.50;7.70;;;;;;;40.74;34.89;101041.38;5076250;28;20978;-80
2022/09/15 02:01:42;;;;;;;15.07;7.67;;;;;;;40.48;34.75;101044.09;5091856;28;20418;-79
2022/09/15 02:04:45;;;;;;;15.80;8.10;;;;;;;40.59;34.96;101042.66;5072308;28;20417;-79
2022/09/15 02:07:24;;;;;;;13.70;6.93;;;;;;;40.96;34.28;101034.97;5072562;28;20426;-79
2022/09/15 02:10:14;;;;;;;25.40;9.43;;;;;;;41.31;33.76;101022.88;5091414;28;21033;-80
2022/09/15 02:12:49;;;;;;;19.93;7.33;;;;;;;41.12;34.11;101021.63;5076118;28;20408;-78
2022/09/15 02:15:27;;;;;;;19.97;8.80;;;;;;;40.52;35.13;101024.13;5075754;28;21064;-80
2022/09/15 02:17:57;;;;;;;17.30;9.03;;;;;;;40.54;35.07;101031.94;5074242;28;20486;-80
2022/09/15 02:20:48;;;;;;;20.00;8.27;;;;;;;40.08;35.73;101025.16;5091223;28;20908;-79
2022/09/15 02:23:38;;;;;;;22.43;7.67;;;;;;;41.05;34.94;101035.75;5075961;28;20475;-79
2022/09/15 02:26:09;;;;;;;14.20;7.33;;;;;;;41.31;33.72;101024.78;5075934;28;20495;-80
2022/09/15 02:28:38;;;;;;;16.00;7.93;;;;;;;40.89;34.37;101034.66;5091126;28;20409;-79
2022/09/15 02:31:09;;;;;;;15.70;9.00;;;;;;;40.91;34.25;101026.97;5091041;28;20414;-79
2022/09/15 02:33:40;;;;;;;30.10;8.00;;;;;;;41.02;33.80;101028.25;5091335;28;20475;-80
2022/09/15 02:36:09;;;;;;;13.47;8.27;;;;;;;40.96;33.68;101030.34;5074016;28;20413;-79
2022/09/15 02:38:42;;;;;;;19.40;7.97;;;;;;;40.85;34.39;101026.31;5074001;28;20975;-80
2022/09/15 02:41:08;;;;;;;17.77;10.57;;;;;;;40.99;33.96;101012.56;5075000;28;20759;-80
2022/09/15 02:43:44;;;;;;;16.27;7.13;;;;;;;40.66;34.79;101007.63;5057185;28;20452;-79
2022/09/15 02:46:10;;;;;;;20.40;9.13;;;;;;;40.88;34.32;101006.63;5090706;28;20413;-81
2022/09/15 02:48:36;;;;;;;15.00;7.30;;;;;;;41.25;33.84;101024.19;5073867;28;20410;-80
2022/09/15 02:51:02;;;;;;;14.33;7.73;;;;;;;40.85;34.34;101033.69;5091357;28;20785;-80
2022/09/15 02:53:28;;;;;;;19.80;8.03;;;;;;;41.17;33.75;101027.72;5073546;28;20418;-79
2022/09/15 02:55:55;;;;;;;19.40;8.50;;;;;;;40.97;34.24;101022.97;5073937;28;20448;-80
2022/09/15 02:58:21;;;;;;;19.00;7.67;;;;;;;41.12;33.97;101038.75;5073443;28;20465;-79
2022/09/15 03:00:47;;;;;;;22.67;8.53;;;;;;;40.77;33.56;101032.59;5074165;28;20429;-79
2022/09/15 03:03:14;;;;;;;25.67;11.27;;;;;;;40.86;33.81;101027.13;5073575;28;20912;-79
2022/09/15 03:05:39;;;;;;;17.40;8.03;;;;;;;40.56;33.73;101029.69;5073501;28;20418;-80
2022/09/15 03:08:06;;;;;;;18.23;10.07;;;;;;;40.15;34.73;101036.38;5073338;28;20466;-79
2022/09/15 03:10:32;;;;;;;21.07;8.20;;;;;;;39.53;35.88;101036.44;5074880;28;20439;-80
2022/09/15 03:12:58;;;;;;;15.33;5.90;;;;;;;39.94;34.69;101038.84;5073462;28;20456;-79
2022/09/15 03:15:25;;;;;;;19.57;7.50;;;;;;;40.40;34.26;101034.00;5070001;28;20423;-78
2022/09/15 03:17:52;;;;;;;16.97;7.60;;;;;;;40.47;34.06;101040.59;5069945;28;20477;-79
2022/09/15 03:20:21;;;;;;;13.23;6.93;;;;;;;40.77;33.84;101046.97;5054924;28;20403;-79
2022/09/15 03:22:48;;;;;;;20.03;8.60;;;;;;;40.67;34.58;101068.25;5054727;28;20502;-79
2022/09/15 03:25:15;;;;;;;24.43;7.53;;;;;;;41.00;34.01;101065.84;5070027;28;20454;-80
2022/09/15 03:27:41;;;;;;;17.60;9.17;;;;;;;40.80;34.38;101062.63;5069864;28;20517;-79
2022/09/15 03:30:09;;;;;;;16.80;8.20;;;;;;;40.56;34.75;101051.44;5069659;28;20497;-79
2022/09/15 03:32:35;;;;;;;17.80;7.67;;;;;;;41.18;33.87;101048.34;5069723;28;20446;-79
2022/09/15 03:35:02;;;;;;;21.50;9.20;;;;;;;40.86;33.82;101052.41;5069545;28;20451;-79
2022/09/15 03:37:28;;;;;;;15.33;7.63;;;;;;;40.97;34.11;101052.91;5069564;28;20428;-79
2022/09/15 03:39:54;;;;;;;18.93;10.27;;;;;;;40.66;34.89;101062.03;5052911;28;20501;-79
2022/09/15 03:42:21;;;;;;;13.93;8.77;;;;;;;41.27;33.57;101064.69;5069425;28;20422;-80
2022/09/15 03:44:47;;;;;;;18.63;8.70;;;;;;;41.05;33.95;101071.91;5053032;28;20913;-79
2022/09/15 03:47:13;;;;;;;19.27;8.67;;;;;;;41.38;33.77;101070.59;5070363;28;20466;-78
2022/09/15 03:49:39;;;;;;;15.40;7.80;;;;;;;41.14;33.32;101052.88;5052613;28;20439;-80
2022/09/15 03:52:05;;;;;;;23.20;9.40;;;;;;;40.44;34.77;101053.97;5066003;28;20856;-81
2022/09/15 03:54:31;;;;;;;17.47;9.10;;;;;;;40.42;34.81;101051.59;5072575;28;20465;-79
2022/09/15 03:56:57;;;;;;;13.97;6.70;;;;;;;41.11;33.75;101053.50;5072680;28;20491;-80
2022/09/15 03:59:23;;;;;;;23.00;8.57;;;;;;;41.29;33.46;101059.69;5072504;28;20470;-79
2022/09/15 04:01:50;;;;;;;16.10;7.00;;;;;;;40.38;34.50;101077.78;5072445;28;20453;-80
2022/09/15 04:04:16;;;;;;;16.40;7.87;;;;;;;41.05;33.67;101073.84;5072570;28;20414;-80
2022/09/15 04:06:43;;;;;;;21.87;9.73;;;;;;;40.94;33.74;101076.09;5072215;28;20442;-81
2022/09/15 04:09:09;;;;;;;16.93;9.40;;;;;;;41.36;33.55;101075.56;5072211;28;20473;-80
2022/09/15 04:11:37;;;;;;;17.37;9.13;;;;;;;41.00;33.94;101080.25;5072285;28;21007;-78
2022/09/15 04:14:03;;;;;;;17.17;7.67;;;;;;;40.85;33.75;101088.09;5073803;28;20441;-80
2022/09/15 04:16:29;;;;;;;15.53;9.03;;;;;;;41.09;33.28;101088.41;5072237;28;20506;-79
2022/09/15 04:18:55;;;;;;;16.67;7.20;;;;;;;40.77;34.14;101095.94;5088665;28;20449;-79
2022/09/15 04:21:25;;;;;;;15.13;8.10;;;;;;;40.97;33.27;101105.38;5089120;28;20424;-80
2022/09/15 04:23:52;;;;;;;16.90;7.07;;;;;;;41.02;33.80;101121.56;5071781;28;20912;-79
2022/09/15 04:26:27;;;;;;;21.23;8.03;;;;;;;41.00;33.92;101126.50;5089206;28;20977;-79
2022/09/15 04:28:53;;;;;;;18.13;7.83;;;;;;;41.32;33.26;101117.06;5071765;28;20418;-80
2022/09/15 04:31:19;;;;;;;12.27;7.80;;;;;;;41.50;33.08;101117.81;5073600;28;20409;-81
2022/09/15 04:33:46;;;;;;;20.40;8.37;;;;;;;41.17;33.25;101125.69;5071992;28;20456;-80
2022/09/15 04:36:18;;;;;;;13.67;9.07;;;;;;;40.99;33.92;101115.94;5071708;28;20434;-79
2022/09/15 04:38:45;;;;;;;20.80;8.43;;;;;;;40.76;34.31;101121.53;5088675;28;20464;-80
2022/09/15 04:41:12;;;;;;;16.83;7.80;;;;;;;41.23;33.64;101113.50;5088584;28;20920;-80
2022/09/15 04:43:38;;;;;;;17.83;9.03;;;;;;;40.65;34.28;101120.25;5071450;28;20420;-81
2022/09/15 04:46:05;;;;;;;25.37;9.20;;;;;;;40.79;34.29;101123.59;5071689;28;20479;-80
2022/09/15 04:48:31;;;;;;;19.83;7.43;;;;;;;40.49;35.01;101129.97;5088483;28;20988;-78
2022/09/15 04:51:06;;;;;;;18.03;7.50;;;;;;;40.68;34.20;101135.91;5088664;28;20495;-78
2022/09/15 04:53:32;;;;;;;17.40;7.40;;;;;;;41.19;33.48;101144.41;5055042;28;20449;-79
2022/09/15 04:56:09;;;;;;;19.30;9.73;;;;;;;41.03;33.89;101135.97;5054998;28;20457;-77
2022/09/15 04:58:44;;;;;;;19.13;9.63;;;;;;;41.38;33.60;101141.41;5071535;28;20480;-80
2022/09/15 05:01:16;;;;;;;18.40;8.60;;;;;;;41.35;33.54;101134.66;5071386;28;20500;-79
2022/09/15 05:03:43;;;;;;;16.80;8.63;;;;;;;41.02;34.16;101150.69;5088120;28;20428;-79
2022/09/15 05:06:12;;;;;;;17.03;7.40;;;;;;;40.47;34.58;101145.78;5088413;28;20422;-79
2022/09/15 05:08:38;;;;;;;13.70;8.70;;;;;;;41.05;33.86;101156.28;5088132;28;20564;-81
2022/09/15 05:11:08;;;;;;;16.33;7.13;;;;;;;41.10;33.24;101162.69;5072962;28;20428;-79
2022/09/15 05:13:35;;;;;;;26.40;9.30;;;;;;;41.08;33.50;101173.91;5088049;28;20820;-78
2022/09/15 05:16:10;;;;;;;14.50;7.50;;;;;;;41.02;33.52;101170.53;5071137;28;20429;-78
2022/09/15 05:18:37;;;;;;;11.00;7.10;;;;;;;41.06;33.46;101165.25;5071112;28;20840;-78
2022/09/15 05:21:05;;;;;;;13.93;7.73;;;;;;;41.06;33.53;101167.97;5071026;28;20449;-79
2022/09/15 05:23:34;;;;;;;15.67;7.90;;;;;;;41.23;33.35;101167.94;5088220;28;20479;-78
2022/09/15 05:26:03;;;;;;;13.80;7.20;;;;;;;41.47;33.20;101180.28;5071026;28;20424;-80
2022/09/15 05:28:32;;;;;;;18.67;8.20;;;;;;;40.82;33.95;101182.00;5071249;28;20414;-78
2022/09/15 05:30:58;;;;;;;12.03;6.73;;;;;;;40.77;34.37;101184.91;5087933;28;20418;-78
2022/09/15 05:33:24;;;;;;;20.30;9.03;;;;;;;41.20;33.70;101184.13;5088040;28;20428;-78
2022/09/15 05:35:59;;;;;;;12.60;6.80;;;;;;;40.39;35.04;101181.91;5070937;28;20512;-78
2022/09/15 05:38:28;;;;;;;16.93;9.47;;;;;;;40.36;34.94;101171.66;5087844;28;20480;-78
2022/09/15 05:41:00;;;;;;;15.97;9.70;;;;;;;40.99;34.11;101167.66;5072616;28;20428;-78
2022/09/15 05:43:30;;;;;;;15.80;9.20;;;;;;;40.78;34.18;101170.97;5072473;28;20398;-78
2022/09/15 05:45:56;;;;;;;17.80;11.00;;;;;;;40.29;35.57;101177.56;5087830;28;20955;-78
2022/09/15 05:48:22;;;;;;;15.13;9.70;;;;;;;39.56;36.02;101173.50;5070743;28;20414;-79
2022/09/15 05:50:52;;;;;;;18.60;11.47;;;;;;;39.81;36.06;101183.72;5072763;28;20439;-75
2022/09/15 05:53:19;;;;;;;18.67;10.23;;;;;;;39.82;35.83;101189.97;5070872;28;20896;-74
2022/09/15 05:55:45;;;;;;;9.60;7.03;;;;;;;39.80;35.47;101190.28;5087595;28;20506;-75
2022/09/15 05:58:12;;;;;;;17.10;7.13;;;;;;;39.86;35.57;101190.94;5087555;28;20515;-75
2022/09/15 06:00:40;;;;;;;13.67;8.20;;;;;;;39.81;35.67;101193.78;5087519;28;20421;-74
2022/09/15 06:03:12;;;;;;;15.17;8.30;;;;;;;39.70;35.71;101191.31;5070778;28;20479;-74
2022/09/15 06:05:38;;;;;;;22.13;8.70;;;;;;;39.72;35.63;101207.34;5087386;28;20446;-75
2022/09/15 06:08:04;;;;;;;15.87;8.03;;;;;;;39.27;36.58;101195.63;5070752;28;20998;-75
2022/09/15 06:10:31;;;;;;;12.53;8.13;;;;;;;39.85;35.34;101198.28;5070653;28;20504;-74
2022/09/15 06:12:57;;;;;;;17.37;10.70;;;;;;;39.40;36.30;101211.84;5070512;28;20829;-74
2022/09/15 06:15:23;;;;;;;26.47;9.20;;;;;;;40.40;34.70;101203.34;5087246;28;20441;-79
2022/09/15 06:17:50;;;;;;;21.70;8.37;;;;;;;39.91;35.06;101213.34;5074155;28;20512;-79
2022/09/15 06:20:17;;;;;;;16.47;6.40;;;;;;;39.75;35.09;101203.97;5091173;28;20456;-79
2022/09/15 06:22:47;;;;;;;14.03;7.13;;;;;;;39.59;35.37;101208.94;5091023;28;20904;-78
2022/09/15 06:25:14;;;;;;;19.60;6.80;;;;;;;40.08;34.64;101209.91;5090336;28;20471;-77
2022/09/15 06:27:41;;;;;;;15.23;6.50;;;;;;;40.28;34.34;101201.22;5073923;28;20449;-78
2022/09/15 06:30:08;;;;;;;22.80;8.73;;;;;;;40.40;34.54;101205.28;5073823;28;20600;-77
2022/09/15 06:32:37;;;;;;;14.13;7.30;;;;;;;40.53;34.27;101209.81;5073883;28;20460;-75
2022/09/15 06:35:07;;;;;;;22.57;7.80;;;;;;;40.32;34.68;101216.91;5075460;28;20398;-77
2022/09/15 06:37:34;;;;;;;21.90;8.37;;;;;;;40.71;33.87;101208.72;5090837;28;20442;-77
2022/09/15 06:40:00;;;;;;;20.03;8.53;;;;;;;40.47;34.62;101224.63;5075441;28;20474;-76
2022/09/15 06:42:27;;;;;;;13.10;7.97;;;;;;;40.74;34.07;101224.41;5073744;28;20776;-77
2022/09/15 06:44:53;;;;;;;24.53;9.50;;;;;;;40.78;34.31;101221.84;5075458;28;20884;-76
2022/09/15 06:47:19;;;;;;;21.60;9.53;;;;;;;40.75;34.04;101220.56;5073582;28;20414;-76
2022/09/15 06:49:45;;;;;;;24.20;8.90;;;;;;;40.40;34.61;101232.47;5090482;28;20428;-77
2022/09/15 06:52:11;;;;;;;28.57;8.43;;;;;;;38.80;37.58;101227.59;5090374;28;20424;-77
2022/09/15 06:54:37;;;;;;;18.27;8.00;;;;;;;40.13;35.36;101228.81;5073336;28;20418;-77
2022/09/15 06:57:03;;;;;;;17.47;9.20;;;;;;;40.15;35.36;101229.31;5072669;28;20426;-77
2022/09/15 06:59:29;;;;;;;22.17;10.53;;;;;;;40.23;34.97;101236.69;5089766;28;20987;-77
2022/09/15 07:01:56;;;;;;;14.10;7.97;;;;;;;40.18;34.89;101236.84;5087578;28;20437;-73
2022/09/15 07:04:22;;;;;;;16.50;9.20;;;;;;;39.49;36.12;101236.38;5088467;28;20435;-76
2022/09/15 07:06:49;;;;;;;17.70;9.97;;;;;;;40.53;34.42;101237.00;5079028;28;20450;-81
2022/09/15 07:09:17;;;;;;;21.93;11.67;;;;;;;40.75;34.35;101249.69;5072396;28;20469;-75
2022/09/15 07:11:43;;;;;;;17.90;9.97;;;;;;;40.15;35.02;101250.25;5066832;28;20440;-79
2022/09/15 07:14:11;;;;;;;28.57;9.97;;;;;;;40.53;34.90;101259.56;5072507;28;20502;-78
2022/09/15 07:16:37;;;;;;;22.77;11.03;;;;;;;39.46;36.22;101261.41;5081250;28;20901;-78
2022/09/15 07:19:04;;;;;;;18.20;9.57;;;;;;;40.80;34.35;101263.13;5084555;28;20467;-77
2022/09/15 07:21:31;;;;;;;21.83;10.50;;;;;;;40.90;34.32;101273.75;5094737;28;20813;-75
2022/09/15 07:23:57;;;;;;;21.67;10.60;;;;;;;40.83;34.29;101267.16;5091771;28;20510;-77
2022/09/15 07:26:27;;;;;;;20.53;10.47;;;;;;;40.30;34.53;101274.28;5109475;28;20421;-76
2022/09/15 07:28:56;;;;;;;17.90;9.03;;;;;;;40.42;34.45;101271.00;5109849;28;20412;-77
2022/09/15 07:31:25;;;;;;;34.83;10.07;;;;;;;40.19;34.49;101265.59;5109347;28;20428;-76
2022/09/15 07:33:51;;;;;;;25.97;8.33;;;;;;;39.16;36.59;101266.41;5092488;28;20429;-76
2022/09/15 07:36:18;;;;;;;16.40;8.47;;;;;;;39.86;35.53;101265.09;5092066;28;20443;-76
2022/09/15 07:38:46;;;;;;;22.53;12.70;;;;;;;39.88;35.27;101267.47;5093845;28;20440;-77
2022/09/15 07:41:27;;;;;;;32.47;10.10;;;;;;;39.71;35.59;101271.69;5109460;28;20941;-74
2022/09/15 07:43:55;;;;;;;24.30;10.00;;;;;;;40.59;33.84;101257.50;5092366;28;20482;-75
2022/09/15 07:46:23;;;;;;;22.10;10.33;;;;;;;40.31;34.57;101269.66;5109543;28;20806;-74
2022/09/15 07:48:51;;;;;;;20.47;8.83;;;;;;;39.67;35.29;101278.84;5075867;28;20968;-74
2022/09/15 07:51:18;;;;;;;20.60;9.33;;;;;;;40.63;34.74;101273.97;5092623;28;20429;-75
2022/09/15 07:53:46;;;;;;;18.97;8.20;;;;;;;40.87;33.57;101279.00;5092635;28;20935;-76
2022/09/15 07:56:13;;;;;;;15.10;7.47;;;;;;;40.52;34.05;101273.47;5109595;28;20508;-76
2022/09/15 07:58:39;;;;;;;30.00;9.80;;;;;;;40.47;34.55;101279.84;5109230;28;20472;-77
2022/09/15 08:01:09;;;;;;;24.20;8.47;;;;;;;39.97;35.26;101282.75;5092573;28;20946;-77
2022/09/15 08:03:39;;;;;;;17.27;7.60;;;;;;;40.47;34.17;101287.16;5092410;28;20417;-76
2022/09/15 08:06:06;;;;;;;24.57;7.13;;;;;;;40.21;34.44;101300.66;5109245;28;20416;-75
2022/09/15 08:08:32;;;;;;;16.60;7.63;;;;;;;40.02;34.71;101298.91;5109178;28;20464;-75
2022/09/15 08:10:58;;;;;;;15.03;7.77;;;;;;;40.25;34.24;101301.59;5109185;28;20417;-75
2022/09/15 08:13:24;;;;;;;14.43;8.13;;;;;;;40.36;33.79;101313.03;5109251;28;20417;-76
2022/09/15 08:15:51;;;;;;;18.03;7.97;;;;;;;40.03;34.04;101310.59;5083345;28;20754;-76
2022/09/15 08:18:17;;;;;;;13.30;9.30;;;;;;;40.39;34.07;101315.09;5073466;28;20464;-76
2022/09/15 08:20:43;;;;;;;16.10;8.50;;;;;;;40.76;33.36;101316.56;5089090;28;20421;-74
2022/09/15 08:23:10;;;;;;;14.80;7.90;;;;;;;41.01;33.36;101312.38;5088667;28;20418;-75
2022/09/15 08:25:38;;;;;;;17.13;8.70;;;;;;;41.34;33.00;101316.25;5073443;28;20769;-75
2022/09/15 08:28:04;;;;;;;16.33;9.63;;;;;;;41.01;33.48;101313.16;5071876;28;20774;-76
2022/09/15 08:30:30;;;;;;;25.30;10.30;;;;;;;41.32;32.84;101310.34;5088893;28;20432;-76
2022/09/15 08:32:56;;;;;;;13.30;7.30;;;;;;;41.27;32.89;101305.03;5072411;28;20908;-76
2022/09/15 08:35:22;;;;;;;15.00;9.63;;;;;;;40.80;33.95;101318.34;5071461;28;20410;-75
2022/09/15 08:37:48;;;;;;;17.43;10.60;;;;;;;40.84;34.08;101317.72;5071785;28;20477;-75
2022/09/15 08:40:22;;;;;;;21.77;10.10;;;;;;;41.21;33.41;101317.19;5071461;28;20851;-74
2022/09/15 08:42:52;;;;;;;20.70;8.97;;;;;;;40.64;34.89;101328.06;5088447;28;21056;-75
2022/09/15 08:45:35;;;;;;;21.77;8.47;;;;;;;40.77;33.90;101327.16;5073145;28;20877;-74
2022/09/15 08:48:06;;;;;;;16.37;8.57;;;;;;;41.10;33.55;101326.78;5071444;28;20421;-75
2022/09/15 08:50:40;;;;;;;18.03;8.27;;;;;;;40.81;33.84;101330.81;5073033;28;20489;-74
2022/09/15 08:53:16;;;;;;;17.13;9.00;;;;;;;41.08;33.29;101323.56;5088270;28;20504;-76
2022/09/15 08:55:47;;;;;;;18.57;9.40;;;;;;;40.38;34.56;101332.53;5072930;28;20402;-76
2022/09/15 08:58:20;;;;;;;17.40;9.87;;;;;;;39.80;35.93;101328.78;5088101;28;20491;-75
2022/09/15 09:00:50;;;;;;;24.73;9.77;;;;;;;40.97;34.19;101342.13;5072894;28;20405;-75
2022/09/15 09:03:38;;;;;;;24.90;9.97;;;;;;;40.64;33.95;101336.22;5073121;28;20463;-75
2022/09/15 09:06:40;;;;;;;19.47;9.53;;;;;;;41.09;33.56;101330.63;5088186;28;20401;-75
2022/09/15 09:09:31;;;;;;;10.57;7.27;;;;;;;40.55;34.86;101344.31;5087970;28;20480;-74
2022/09/15 09:12:34;;;;;;;18.63;9.30;;;;;;;40.66;34.61;101347.56;5088045;28;20421;-75
2022/09/15 09:15:22;;;;;;;19.63;9.03;;;;;;;40.72;35.32;101351.75;5088015;28;20409;-75
2022/09/15 09:18:45;;;;;;;17.43;9.03;;;;;;;40.47;35.37;101350.53;5071198;28;20421;-76
2022/09/15 09:21:11;;;;;;;29.73;16.60;;;;;;;39.96;35.86;101346.34;5040641;28;20867;-77
2022/09/15 09:23:46;;;;;;;20.50;11.67;;;;;;;39.86;37.02;101348.50;5087951;28;20912;-77
2022/09/15 09:26:14;;;;;;;19.30;10.63;;;;;;;39.90;36.72;101352.19;5070988;28;20417;-75
2022/09/15 09:28:57;;;;;;;17.07;8.77;;;;;;;40.37;36.14;101344.53;5070969;28;20422;-75
2022/09/15 09:31:25;;;;;;;12.77;8.80;;;;;;;40.70;35.61;101332.25;5072576;28;20405;-75
2022/09/15 09:34:09;;;;;;;18.10;9.73;;;;;;;41.21;35.28;101338.97;5071287;28;20436;-75
2022/09/15 09:36:35;;;;;;;25.83;9.27;;;;;;;41.34;35.32;101339.97;5087596;28;20484;-77
2022/09/15 09:39:02;;;;;;;24.63;13.40;;;;;;;41.30;34.78;101330.78;5070849;28;20464;-77
2022/09/15 09:41:35;;;;;;;27.87;13.20;;;;;;;41.69;34.61;101329.09;5087756;28;20549;-76
2022/09/15 09:44:08;;;;;;;19.17;10.23;;;;;;;40.66;35.85;101331.25;5072545;28;20462;-76
2022/09/15 09:46:34;;;;;;;20.83;13.17;;;;;;;41.00;34.78;101346.09;5070778;28;20935;-75
2022/09/15 09:49:23;;;;;;;23.17;14.10;;;;;;;40.58;34.93;101342.09;5071106;28;20511;-75
2022/09/15 09:52:01;;;;;;;28.50;15.03;;;;;;;41.65;33.93;101331.66;5069539;28;20831;-76
2022/09/15 09:54:29;;;;;;;21.57;8.73;;;;;;;40.98;34.27;101346.44;5074678;28;20452;-77
2022/09/15 09:57:16;;;;;;;18.23;7.90;;;;;;;41.25;34.68;101345.38;5076355;28;20405;-75
2022/09/15 09:59:47;;;;;;;21.10;9.03;;;;;;;41.65;33.78;101342.53;5064666;28;20473;-75
2022/09/15 10:02:19;;;;;;;21.93;8.77;;;;;;;41.68;33.70;101341.09;5074470;28;20543;-75
2022/09/15 10:04:52;;;;;;;20.33;10.27;;;;;;;41.93;33.54;101339.50;5074418;28;20803;-75
2022/09/15 10:07:21;;;;;;;20.27;10.37;;;;;;;41.26;34.28;101340.75;5076119;28;20405;-76
2022/09/15 10:09:50;;;;;;;12.23;8.70;;;;;;;40.96;34.92;101337.78;5091071;28;21061;-75
2022/09/15 10:12:39;;;;;;;20.00;9.30;;;;;;;39.62;37.30;101332.47;5091273;28;20501;-76
2022/09/15 10:15:19;;;;;;;20.07;9.63;;;;;;;39.64;37.71;101322.91;5075480;28;20464;-75
2022/09/15 10:17:48;;;;;;;15.47;9.80;;;;;;;39.06;38.32;101323.59;5074303;28;20414;-76
2022/09/15 10:20:47;;;;;;;16.63;10.50;;;;;;;40.02;36.93;101325.25;5090973;28;20463;-75
2022/09/15 10:23:16;;;;;;;14.30;8.17;;;;;;;40.10;36.96;101331.91;5074379;28;20421;-79
2022/09/15 10:25:44;;;;;;;9.20;6.37;;;;;;;40.66;35.88;101330.47;5076303;28;20406;-78
2022/09/15 10:28:17;;;;;;;15.53;7.50;;;;;;;39.49;37.04;101325.94;5057896;28;20986;-81
2022/09/15 10:31:04;;;;;;;19.13;8.17;;;;;;;40.20;36.31;101324.28;5090960;28;20455;-78
2022/09/15 10:33:33;;;;;;;18.93;8.33;;;;;;;40.59;35.79;101322.75;5090841;28;20418;-79
2022/09/15 10:36:30;;;;;;;15.20;9.60;;;;;;;40.52;35.93;101316.97;5090819;28;20432;-79
2022/09/15 10:39:30;;;;;;;28.10;11.40;;;;;;;40.47;35.97;101312.47;5072934;28;20522;-79
2022/09/15 10:42:36;;;;;;;16.33;10.37;;;;;;;40.78;36.17;101309.69;5073906;28;20426;-80
2022/09/15 10:45:02;;;;;;;21.03;10.50;;;;;;;40.77;35.97;101312.75;5074905;28;21027;-80
2022/09/15 10:47:48;;;;;;;14.60;10.80;;;;;;;41.44;35.70;101307.00;5075330;28;20517;-79
2022/09/15 10:50:24;;;;;;;20.63;10.50;;;;;;;41.24;34.98;101302.13;5090559;28;20425;-79
2022/09/15 10:53:15;;;;;;;15.53;8.60;;;;;;;41.36;35.09;101294.16;5075008;28;20533;-79
2022/09/15 10:56:23;;;;;;;17.77;10.10;;;;;;;41.10;34.87;101298.75;5075253;28;20402;-79
2022/09/15 10:59:07;;;;;;;18.33;11.27;;;;;;;40.37;36.02;101301.81;5073357;28;20469;-75
2022/09/15 11:01:56;;;;;;;20.67;10.00;;;;;;;40.90;35.58;101289.25;5090066;28;20814;-79
2022/09/15 11:04:52;;;;;;;19.97;11.57;;;;;;;41.24;35.58;101291.25;5090361;28;20447;-77
2022/09/15 11:07:37;;;;;;;20.83;9.40;;;;;;;41.31;35.22;101286.94;5073497;28;20998;-80
2022/09/15 11:10:55;;;;;;;20.10;9.03;;;;;;;41.13;34.86;101285.31;5090011;28;20998;-80
2022/09/15 11:13:58;;;;;;;18.30;10.00;;;;;;;41.64;34.38;101288.41;5024961;28;20437;-73
2022/09/15 11:16:49;;;;;;;17.33;8.47;;;;;;;41.11;34.72;101275.88;5089907;28;20447;-77
2022/09/15 11:19:33;;;;;;;12.50;8.30;;;;;;;41.06;34.71;101282.25;5089872;28;20583;-77
2022/09/15 11:22:16;;;;;;;10.37;6.90;;;;;;;40.07;35.85;101278.16;5089948;28;20433;-77
2022/09/15 11:24:54;;;;;;;13.50;7.47;;;;;;;40.57;35.08;101264.34;5073525;28;20822;-77
2022/09/15 11:27:26;;;;;;;14.00;7.90;;;;;;;40.92;34.32;101265.28;5089834;28;20942;-78
2022/09/15 11:30:01;;;;;;;16.97;7.37;;;;;;;40.96;34.78;101260.81;5089791;28;20454;-78
2022/09/15 11:32:43;;;;;;;14.13;7.50;;;;;;;41.17;33.88;101258.25;5089709;28;20466;-78
2022/09/15 11:35:31;;;;;;;13.10;7.30;;;;;;;41.48;33.39;101252.66;5074492;28;20398;-76
2022/09/15 11:38:21;;;;;;;15.17;7.77;;;;;;;40.79;34.25;101258.81;5074309;28;20421;-77
2022/09/15 11:41:12;;;;;;;15.93;7.90;;;;;;;41.12;34.07;101242.88;5042489;28;20426;-77